sensor_id;sensor_type;location;lat;lon;timestamp;temperature;humidity
74940;HTU21D;63505;45.226;37.908;2023-04-24T00:00:52;9.26;78.94
74940;HTU21D;63505;45.226;37.908;2023-04-24T00:03:18;9.30;78.91
74940;HTU21D;63505;45.226;37.908;2023-04-24T00:05:47;9.32;78.89
74940;HTU21D;63505;45.226;37.908;2023-04-24T00:08:14;9.37;78.88
74940;HTU21D;63505;45.226;37.908;2023-04-24T00:10:41;9.39;78.83
74940;HTU21D;63505;45.226;37.908;2023-04-24T00:13:07;9.42;78.83
74940;HTU21D;63505;45.226;37.908;2023-04-24T00:15:34;9.44;78.83
74940;HTU21D;63505;45.226;37.908;2023-04-24T00:18:01;9.46;78.82
74940;HTU21D;63505;45.226;37.908;2023-04-24T00:20:28;9.46;78.82
74940;HTU21D;63505;45.226;37.908;2023-04-24T00:23:04;9.45;78.86
74940;HTU21D;63505;45.226;37.908;2023-04-24T00:25:31;9.41;78.91
74940;HTU21D;63505;45.226;37.908;2023-04-24T00:27:57;9.39;78.98
74940;HTU21D;63505;45.226;37.908;2023-04-24T00:30:22;9.36;79.04
74940;HTU21D;63505;45.226;37.908;2023-04-24T00:32:48;9.31;79.14
74940;HTU21D;63505;45.226;37.908;2023-04-24T00:35:14;9.26;79.19
74940;HTU21D;63505;45.226;37.908;2023-04-24T00:37:42;9.23;79.30
74940;HTU21D;63505;45.226;37.908;2023-04-24T00:40:08;9.21;79.36
74940;HTU21D;63505;45.226;37.908;2023-04-24T00:42:34;9.19;79.40
74940;HTU21D;63505;45.226;37.908;2023-04-24T00:45:00;9.17;79.44
74940;HTU21D;63505;45.226;37.908;2023-04-24T00:47:26;9.15;79.48
74940;HTU21D;63505;45.226;37.908;2023-04-24T00:49:52;9.12;79.51
74940;HTU21D;63505;45.226;37.908;2023-04-24T00:52:18;9.11;79.52
74940;HTU21D;63505;45.226;37.908;2023-04-24T00:54:44;9.09;79.56
74940;HTU21D;63505;45.226;37.908;2023-04-24T00:57:11;9.07;79.59
74940;HTU21D;63505;45.226;37.908;2023-04-24T00:59:38;9.06;79.59
74940;HTU21D;63505;45.226;37.908;2023-04-24T01:02:07;9.05;79.61
74940;HTU21D;63505;45.226;37.908;2023-04-24T01:04:34;9.01;79.63
74940;HTU21D;63505;45.226;37.908;2023-04-24T01:07:01;8.94;79.71
74940;HTU21D;63505;45.226;37.908;2023-04-24T01:09:27;8.90;79.76
74940;HTU21D;63505;45.226;37.908;2023-04-24T01:11:53;8.88;79.83
74940;HTU21D;63505;45.226;37.908;2023-04-24T01:14:20;8.85;79.88
74940;HTU21D;63505;45.226;37.908;2023-04-24T01:16:48;8.82;79.92
74940;HTU21D;63505;45.226;37.908;2023-04-24T01:19:15;8.83;79.91
74940;HTU21D;63505;45.226;37.908;2023-04-24T01:21:43;8.81;79.89
74940;HTU21D;63505;45.226;37.908;2023-04-24T01:24:09;8.81;79.89
74940;HTU21D;63505;45.226;37.908;2023-04-24T01:26:35;8.78;79.89
74940;HTU21D;63505;45.226;37.908;2023-04-24T01:29:01;8.77;79.90
74940;HTU21D;63505;45.226;37.908;2023-04-24T01:31:27;8.75;79.93
74940;HTU21D;63505;45.226;37.908;2023-04-24T01:33:54;8.72;79.98
74940;HTU21D;63505;45.226;37.908;2023-04-24T01:36:21;8.71;79.99
74940;HTU21D;63505;45.226;37.908;2023-04-24T01:38:48;8.72;80.01
74940;HTU21D;63505;45.226;37.908;2023-04-24T01:41:14;8.71;80.01
74940;HTU21D;63505;45.226;37.908;2023-04-24T01:43:40;8.70;80.04
74940;HTU21D;63505;45.226;37.908;2023-04-24T01:46:07;8.67;80.07
74940;HTU21D;63505;45.226;37.908;2023-04-24T01:48:35;8.66;80.07
74940;HTU21D;63505;45.226;37.908;2023-04-24T01:51:01;8.64;80.11
74940;HTU21D;63505;45.226;37.908;2023-04-24T01:53:27;8.62;80.14
74940;HTU21D;63505;45.226;37.908;2023-04-24T01:55:53;8.58;80.18
74940;HTU21D;63505;45.226;37.908;2023-04-24T01:58:19;8.56;80.21
74940;HTU21D;63505;45.226;37.908;2023-04-24T02:00:45;8.53;80.27
74940;HTU21D;63505;45.226;37.908;2023-04-24T02:03:11;8.51;80.29
74940;HTU21D;63505;45.226;37.908;2023-04-24T02:05:37;8.48;80.32
74940;HTU21D;63505;45.226;37.908;2023-04-24T02:08:03;8.47;80.32
74940;HTU21D;63505;45.226;37.908;2023-04-24T02:10:28;8.44;80.36
74940;HTU21D;63505;45.226;37.908;2023-04-24T02:12:54;8.39;80.39
74940;HTU21D;63505;45.226;37.908;2023-04-24T02:15:23;8.35;80.42
74940;HTU21D;63505;45.226;37.908;2023-04-24T02:17:49;8.33;80.49
74940;HTU21D;63505;45.226;37.908;2023-04-24T02:20:15;8.30;80.52
74940;HTU21D;63505;45.226;37.908;2023-04-24T02:22:41;8.29;80.56
74940;HTU21D;63505;45.226;37.908;2023-04-24T02:25:07;8.23;80.58
74940;HTU21D;63505;45.226;37.908;2023-04-24T02:27:33;8.22;80.59
74940;HTU21D;63505;45.226;37.908;2023-04-24T02:29:59;8.18;80.62
74940;HTU21D;63505;45.226;37.908;2023-04-24T02:32:26;8.16;80.62
74940;HTU21D;63505;45.226;37.908;2023-04-24T02:34:52;8.13;80.65
74940;HTU21D;63505;45.226;37.908;2023-04-24T02:37:18;8.12;80.69
74940;HTU21D;63505;45.226;37.908;2023-04-24T02:39:43;8.12;80.69
74940;HTU21D;63505;45.226;37.908;2023-04-24T02:42:09;8.09;80.65
74940;HTU21D;63505;45.226;37.908;2023-04-24T02:44:35;8.11;80.66
74940;HTU21D;63505;45.226;37.908;2023-04-24T02:47:01;8.11;80.65
74940;HTU21D;63505;45.226;37.908;2023-04-24T02:49:27;8.11;80.68
74940;HTU21D;63505;45.226;37.908;2023-04-24T02:51:53;8.14;80.65
74940;HTU21D;63505;45.226;37.908;2023-04-24T02:54:19;8.14;80.63
74940;HTU21D;63505;45.226;37.908;2023-04-24T02:56:45;8.15;80.62
74940;HTU21D;63505;45.226;37.908;2023-04-24T02:59:11;8.18;80.62
74940;HTU21D;63505;45.226;37.908;2023-04-24T03:01:37;8.20;80.61
74940;HTU21D;63505;45.226;37.908;2023-04-24T03:04:03;8.22;80.60
74940;HTU21D;63505;45.226;37.908;2023-04-24T03:06:29;8.26;80.59
74940;HTU21D;63505;45.226;37.908;2023-04-24T03:08:56;8.27;80.59
74940;HTU21D;63505;45.226;37.908;2023-04-24T03:11:22;8.31;80.59
74940;HTU21D;63505;45.226;37.908;2023-04-24T03:13:48;8.34;80.60
74940;HTU21D;63505;45.226;37.908;2023-04-24T03:16:14;8.39;80.57
74940;HTU21D;63505;45.226;37.908;2023-04-24T03:18:40;8.45;80.55
74940;HTU21D;63505;45.226;37.908;2023-04-24T03:21:07;8.51;80.56
74940;HTU21D;63505;45.226;37.908;2023-04-24T03:23:35;8.59;80.49
74940;HTU21D;63505;45.226;37.908;2023-04-24T03:26:01;8.65;80.46
74940;HTU21D;63505;45.226;37.908;2023-04-24T03:28:29;8.75;80.40
74940;HTU21D;63505;45.226;37.908;2023-04-24T03:31:03;8.81;80.38
74940;HTU21D;63505;45.226;37.908;2023-04-24T03:33:33;8.91;80.36
74940;HTU21D;63505;45.226;37.908;2023-04-24T03:36:00;9.00;80.28
74940;HTU21D;63505;45.226;37.908;2023-04-24T03:38:34;9.04;80.24
74940;HTU21D;63505;45.226;37.908;2023-04-24T03:41:16;9.07;80.22
74940;HTU21D;63505;45.226;37.908;2023-04-24T03:43:51;9.11;80.24
74940;HTU21D;63505;45.226;37.908;2023-04-24T03:46:17;9.18;80.28
74940;HTU21D;63505;45.226;37.908;2023-04-24T03:48:49;9.29;80.29
74940;HTU21D;63505;45.226;37.908;2023-04-24T03:51:18;9.41;80.24
74940;HTU21D;63505;45.226;37.908;2023-04-24T03:53:46;9.54;80.17
74940;HTU21D;63505;45.226;37.908;2023-04-24T03:56:16;9.65;80.07
74940;HTU21D;63505;45.226;37.908;2023-04-24T03:58:42;9.75;80.02
74940;HTU21D;63505;45.226;37.908;2023-04-24T04:01:09;9.82;79.98
74940;HTU21D;63505;45.226;37.908;2023-04-24T04:03:51;9.93;80.00
74940;HTU21D;63505;45.226;37.908;2023-04-24T04:06:20;10.05;79.97
74940;HTU21D;63505;45.226;37.908;2023-04-24T04:08:48;10.16;80.00
74940;HTU21D;63505;45.226;37.908;2023-04-24T04:11:14;10.31;79.91
74940;HTU21D;63505;45.226;37.908;2023-04-24T04:13:40;10.45;79.82
74940;HTU21D;63505;45.226;37.908;2023-04-24T04:16:06;10.59;79.77
74940;HTU21D;63505;45.226;37.908;2023-04-24T04:18:32;10.71;79.72
74940;HTU21D;63505;45.226;37.908;2023-04-24T04:20:59;10.80;79.69
74940;HTU21D;63505;45.226;37.908;2023-04-24T04:23:26;10.92;79.75
74940;HTU21D;63505;45.226;37.908;2023-04-24T04:26:03;11.05;79.72
74940;HTU21D;63505;45.226;37.908;2023-04-24T04:28:43;11.16;79.69
74940;HTU21D;63505;45.226;37.908;2023-04-24T04:31:11;11.29;79.66
74940;HTU21D;63505;45.226;37.908;2023-04-24T04:33:37;11.42;79.62
74940;HTU21D;63505;45.226;37.908;2023-04-24T04:36:06;11.54;79.59
74940;HTU21D;63505;45.226;37.908;2023-04-24T04:38:36;11.67;79.59
74940;HTU21D;63505;45.226;37.908;2023-04-24T04:41:20;11.82;79.54
74940;HTU21D;63505;45.226;37.908;2023-04-24T04:43:46;11.93;79.48
74940;HTU21D;63505;45.226;37.908;2023-04-24T04:46:13;12.10;79.42
74940;HTU21D;63505;45.226;37.908;2023-04-24T04:49:00;12.27;79.33
74940;HTU21D;63505;45.226;37.908;2023-04-24T04:51:27;12.38;79.27
74940;HTU21D;63505;45.226;37.908;2023-04-24T04:53:53;12.49;79.28
74940;HTU21D;63505;45.226;37.908;2023-04-24T04:56:19;12.58;79.28
74940;HTU21D;63505;45.226;37.908;2023-04-24T04:58:45;12.63;79.35
74940;HTU21D;63505;45.226;37.908;2023-04-24T05:01:14;12.67;79.43
74940;HTU21D;63505;45.226;37.908;2023-04-24T05:03:44;12.73;79.51
74940;HTU21D;63505;45.226;37.908;2023-04-24T05:06:13;12.79;79.56
74940;HTU21D;63505;45.226;37.908;2023-04-24T05:08:39;12.88;79.56
74940;HTU21D;63505;45.226;37.908;2023-04-24T05:11:09;13.01;79.53
74940;HTU21D;63505;45.226;37.908;2023-04-24T05:13:36;13.12;79.45
74940;HTU21D;63505;45.226;37.908;2023-04-24T05:16:06;13.22;79.37
74940;HTU21D;63505;45.226;37.908;2023-04-24T05:18:33;13.27;79.37
74940;HTU21D;63505;45.226;37.908;2023-04-24T05:20:59;13.31;79.36
74940;HTU21D;63505;45.226;37.908;2023-04-24T05:23:25;13.35;79.40
74940;HTU21D;63505;45.226;37.908;2023-04-24T05:25:53;13.41;79.37
74940;HTU21D;63505;45.226;37.908;2023-04-24T05:28:20;13.51;79.39
74940;HTU21D;63505;45.226;37.908;2023-04-24T05:30:56;13.64;79.33
74940;HTU21D;63505;45.226;37.908;2023-04-24T05:33:24;13.80;79.22
74940;HTU21D;63505;45.226;37.908;2023-04-24T05:35:50;13.93;79.11
74940;HTU21D;63505;45.226;37.908;2023-04-24T05:38:16;14.01;79.04
74940;HTU21D;63505;45.226;37.908;2023-04-24T05:40:45;14.09;78.98
74940;HTU21D;63505;45.226;37.908;2023-04-24T05:43:12;14.14;78.97
74940;HTU21D;63505;45.226;37.908;2023-04-24T05:45:39;14.21;78.97
74940;HTU21D;63505;45.226;37.908;2023-04-24T05:48:05;14.29;78.92
74940;HTU21D;63505;45.226;37.908;2023-04-24T05:50:32;14.39;78.87
74940;HTU21D;63505;45.226;37.908;2023-04-24T05:52:58;14.51;78.82
74940;HTU21D;63505;45.226;37.908;2023-04-24T05:55:30;14.64;78.69
74940;HTU21D;63505;45.226;37.908;2023-04-24T05:57:56;14.73;78.60
74940;HTU21D;63505;45.226;37.908;2023-04-24T06:00:23;14.86;78.50
74940;HTU21D;63505;45.226;37.908;2023-04-24T06:02:59;14.97;78.43
74940;HTU21D;63505;45.226;37.908;2023-04-24T06:05:25;15.13;78.30
74940;HTU21D;63505;45.226;37.908;2023-04-24T06:07:52;15.26;78.12
74940;HTU21D;63505;45.226;37.908;2023-04-24T06:10:21;15.34;78.05
74940;HTU21D;63505;45.226;37.908;2023-04-24T06:12:47;15.37;77.92
74940;HTU21D;63505;45.226;37.908;2023-04-24T06:15:17;15.38;77.93
74940;HTU21D;63505;45.226;37.908;2023-04-24T06:17:56;15.34;77.96
74940;HTU21D;63505;45.226;37.908;2023-04-24T06:20:23;15.34;77.95
74940;HTU21D;63505;45.226;37.908;2023-04-24T06:22:49;15.34;78.01
74940;HTU21D;63505;45.226;37.908;2023-04-24T06:25:15;15.37;77.99
74940;HTU21D;63505;45.226;37.908;2023-04-24T06:27:40;15.39;77.98
74940;HTU21D;63505;45.226;37.908;2023-04-24T06:30:08;15.43;77.95
74940;HTU21D;63505;45.226;37.908;2023-04-24T06:32:34;15.45;77.89
74940;HTU21D;63505;45.226;37.908;2023-04-24T06:34:59;15.45;77.82
74940;HTU21D;63505;45.226;37.908;2023-04-24T06:37:25;15.49;77.74
74940;HTU21D;63505;45.226;37.908;2023-04-24T06:39:51;15.52;77.66
74940;HTU21D;63505;45.226;37.908;2023-04-24T06:42:17;15.57;77.60
74940;HTU21D;63505;45.226;37.908;2023-04-24T06:44:48;15.70;77.50
74940;HTU21D;63505;45.226;37.908;2023-04-24T06:47:14;15.80;77.35
74940;HTU21D;63505;45.226;37.908;2023-04-24T06:49:41;15.85;77.27
74940;HTU21D;63505;45.226;37.908;2023-04-24T06:52:07;15.91;77.24
74940;HTU21D;63505;45.226;37.908;2023-04-24T06:54:33;15.96;77.18
74940;HTU21D;63505;45.226;37.908;2023-04-24T06:56:59;16.02;77.08
74940;HTU21D;63505;45.226;37.908;2023-04-24T06:59:29;16.18;76.92
74940;HTU21D;63505;45.226;37.908;2023-04-24T07:01:56;16.30;76.60
74940;HTU21D;63505;45.226;37.908;2023-04-24T07:04:22;16.34;76.46
74940;HTU21D;63505;45.226;37.908;2023-04-24T07:06:48;16.42;76.46
74940;HTU21D;63505;45.226;37.908;2023-04-24T07:09:18;16.42;76.32
74940;HTU21D;63505;45.226;37.908;2023-04-24T07:11:44;16.37;76.28
74940;HTU21D;63505;45.226;37.908;2023-04-24T07:14:11;16.32;76.23
74940;HTU21D;63505;45.226;37.908;2023-04-24T07:16:37;16.26;75.99
74940;HTU21D;63505;45.226;37.908;2023-04-24T07:19:03;16.21;75.80
74940;HTU21D;63505;45.226;37.908;2023-04-24T07:21:29;16.15;75.42
74940;HTU21D;63505;45.226;37.908;2023-04-24T07:23:57;16.11;75.30
74940;HTU21D;63505;45.226;37.908;2023-04-24T07:26:23;16.17;75.32
74940;HTU21D;63505;45.226;37.908;2023-04-24T07:28:49;16.22;75.15
74940;HTU21D;63505;45.226;37.908;2023-04-24T07:31:14;16.24;75.09
74940;HTU21D;63505;45.226;37.908;2023-04-24T07:33:40;16.28;74.96
74940;HTU21D;63505;45.226;37.908;2023-04-24T07:36:06;16.27;74.70
74940;HTU21D;63505;45.226;37.908;2023-04-24T07:38:32;16.32;74.69
74940;HTU21D;63505;45.226;37.908;2023-04-24T07:40:58;16.35;74.59
74940;HTU21D;63505;45.226;37.908;2023-04-24T07:43:24;16.40;74.60
74940;HTU21D;63505;45.226;37.908;2023-04-24T07:45:51;16.43;74.57
74940;HTU21D;63505;45.226;37.908;2023-04-24T07:48:17;16.46;74.61
74940;HTU21D;63505;45.226;37.908;2023-04-24T07:50:44;16.49;74.59
74940;HTU21D;63505;45.226;37.908;2023-04-24T07:53:10;16.54;74.58
74940;HTU21D;63505;45.226;37.908;2023-04-24T07:55:36;16.57;74.58
74940;HTU21D;63505;45.226;37.908;2023-04-24T07:58:02;16.66;74.54
74940;HTU21D;63505;45.226;37.908;2023-04-24T08:00:28;16.71;74.42
74940;HTU21D;63505;45.226;37.908;2023-04-24T08:02:54;16.70;74.49
74940;HTU21D;63505;45.226;37.908;2023-04-24T08:05:20;16.76;74.47
74940;HTU21D;63505;45.226;37.908;2023-04-24T08:07:46;16.79;74.35
74940;HTU21D;63505;45.226;37.908;2023-04-24T08:10:14;16.84;74.27
74940;HTU21D;63505;45.226;37.908;2023-04-24T08:12:41;16.82;74.24
74940;HTU21D;63505;45.226;37.908;2023-04-24T08:15:07;16.79;74.25
74940;HTU21D;63505;45.226;37.908;2023-04-24T08:17:36;16.76;74.31
74940;HTU21D;63505;45.226;37.908;2023-04-24T08:20:03;16.72;74.35
74940;HTU21D;63505;45.226;37.908;2023-04-24T08:22:30;16.65;74.41
74940;HTU21D;63505;45.226;37.908;2023-04-24T08:24:57;16.62;74.47
74940;HTU21D;63505;45.226;37.908;2023-04-24T08:27:23;16.56;74.45
74940;HTU21D;63505;45.226;37.908;2023-04-24T08:29:49;16.44;74.63
74940;HTU21D;63505;45.226;37.908;2023-04-24T08:32:16;16.36;74.76
74940;HTU21D;63505;45.226;37.908;2023-04-24T08:34:42;16.27;74.89
74940;HTU21D;63505;45.226;37.908;2023-04-24T08:37:08;16.22;74.96
74940;HTU21D;63505;45.226;37.908;2023-04-24T08:39:33;16.17;74.98
74940;HTU21D;63505;45.226;37.908;2023-04-24T08:42:00;16.10;75.09
74940;HTU21D;63505;45.226;37.908;2023-04-24T08:44:35;16.06;75.18
74940;HTU21D;63505;45.226;37.908;2023-04-24T08:47:02;16.01;75.22
74940;HTU21D;63505;45.226;37.908;2023-04-24T08:49:28;15.93;75.31
74940;HTU21D;63505;45.226;37.908;2023-04-24T08:51:55;15.88;75.38
74940;HTU21D;63505;45.226;37.908;2023-04-24T08:54:21;15.82;75.42
74940;HTU21D;63505;45.226;37.908;2023-04-24T08:56:48;15.73;75.49
74940;HTU21D;63505;45.226;37.908;2023-04-24T08:59:15;15.67;75.60
74940;HTU21D;63505;45.226;37.908;2023-04-24T09:01:41;15.62;75.62
74940;HTU21D;63505;45.226;37.908;2023-04-24T09:04:09;15.55;75.67
74940;HTU21D;63505;45.226;37.908;2023-04-24T09:06:36;15.48;75.73
74940;HTU21D;63505;45.226;37.908;2023-04-24T09:09:03;15.44;75.81
74940;HTU21D;63505;45.226;37.908;2023-04-24T09:11:32;15.41;75.88
74940;HTU21D;63505;45.226;37.908;2023-04-24T09:13:58;15.37;75.98
74940;HTU21D;63505;45.226;37.908;2023-04-24T09:16:26;15.28;76.14
74940;HTU21D;63505;45.226;37.908;2023-04-24T09:18:52;15.21;76.26
74940;HTU21D;63505;45.226;37.908;2023-04-24T09:21:21;15.17;76.24
74940;HTU21D;63505;45.226;37.908;2023-04-24T09:23:57;15.18;76.24
74940;HTU21D;63505;45.226;37.908;2023-04-24T09:26:24;15.21;76.25
74940;HTU21D;63505;45.226;37.908;2023-04-24T09:28:50;15.25;76.18
74940;HTU21D;63505;45.226;37.908;2023-04-24T09:31:18;15.29;76.06
74940;HTU21D;63505;45.226;37.908;2023-04-24T09:34:07;15.40;75.86
74940;HTU21D;63505;45.226;37.908;2023-04-24T09:36:41;15.45;75.61
74940;HTU21D;63505;45.226;37.908;2023-04-24T09:39:08;15.46;75.43
74940;HTU21D;63505;45.226;37.908;2023-04-24T09:46:38;15.45;75.31
74940;HTU21D;63505;45.226;37.908;2023-04-24T09:49:09;15.42;75.38
74940;HTU21D;63505;45.226;37.908;2023-04-24T09:51:37;15.39;75.45
74940;HTU21D;63505;45.226;37.908;2023-04-24T09:54:11;15.37;75.46
74940;HTU21D;63505;45.226;37.908;2023-04-24T09:56:42;15.30;75.57
74940;HTU21D;63505;45.226;37.908;2023-04-24T09:59:08;15.30;75.58
74940;HTU21D;63505;45.226;37.908;2023-04-24T10:01:34;15.28;75.54
74940;HTU21D;63505;45.226;37.908;2023-04-24T10:04:00;15.27;75.54
74940;HTU21D;63505;45.226;37.908;2023-04-24T10:06:34;15.18;75.55
74940;HTU21D;63505;45.226;37.908;2023-04-24T10:09:00;15.06;75.89
74940;HTU21D;63505;45.226;37.908;2023-04-24T10:11:27;15.02;76.09
74940;HTU21D;63505;45.226;37.908;2023-04-24T10:13:53;15.00;76.23
74940;HTU21D;63505;45.226;37.908;2023-04-24T10:16:22;14.99;76.37
74940;HTU21D;63505;45.226;37.908;2023-04-24T10:18:48;14.99;76.38
74940;HTU21D;63505;45.226;37.908;2023-04-24T10:21:17;14.92;76.76
74940;HTU21D;63505;45.226;37.908;2023-04-24T10:23:43;14.83;77.25
74940;HTU21D;63505;45.226;37.908;2023-04-24T10:26:16;14.84;77.36
74940;HTU21D;63505;45.226;37.908;2023-04-24T10:28:45;14.80;77.52
74940;HTU21D;63505;45.226;37.908;2023-04-24T10:31:12;14.79;77.63
74940;HTU21D;63505;45.226;37.908;2023-04-24T10:33:40;14.82;77.66
74940;HTU21D;63505;45.226;37.908;2023-04-24T10:36:11;14.79;77.81
74940;HTU21D;63505;45.226;37.908;2023-04-24T10:38:39;14.80;77.79
74940;HTU21D;63505;45.226;37.908;2023-04-24T10:41:08;14.80;77.74
74940;HTU21D;63505;45.226;37.908;2023-04-24T10:43:45;14.80;77.66
74940;HTU21D;63505;45.226;37.908;2023-04-24T10:46:19;14.73;77.85
74940;HTU21D;63505;45.226;37.908;2023-04-24T10:48:52;14.74;78.01
74940;HTU21D;63505;45.226;37.908;2023-04-24T10:51:22;14.74;78.05
74940;HTU21D;63505;45.226;37.908;2023-04-24T10:53:50;14.71;78.04
74940;HTU21D;63505;45.226;37.908;2023-04-24T10:56:16;14.68;78.14
74940;HTU21D;63505;45.226;37.908;2023-04-24T10:58:51;14.69;78.20
74940;HTU21D;63505;45.226;37.908;2023-04-24T11:01:38;14.64;78.30
74940;HTU21D;63505;45.226;37.908;2023-04-24T11:04:04;14.60;78.36
74940;HTU21D;63505;45.226;37.908;2023-04-24T11:09:07;14.57;78.39
74940;HTU21D;63505;45.226;37.908;2023-04-24T11:11:36;14.52;78.44
74940;HTU21D;63505;45.226;37.908;2023-04-24T11:14:04;14.47;78.53
74940;HTU21D;63505;45.226;37.908;2023-04-24T11:16:38;14.40;78.63
74940;HTU21D;63505;45.226;37.908;2023-04-24T11:19:27;14.35;78.79
74940;HTU21D;63505;45.226;37.908;2023-04-24T11:21:56;14.26;78.98
74940;HTU21D;63505;45.226;37.908;2023-04-24T11:24:27;14.18;79.17
74940;HTU21D;63505;45.226;37.908;2023-04-24T11:26:55;14.15;79.28
74940;HTU21D;63505;45.226;37.908;2023-04-24T11:29:22;14.09;79.53
74940;HTU21D;63505;45.226;37.908;2023-04-24T11:31:49;14.04;79.75
74940;HTU21D;63505;45.226;37.908;2023-04-24T11:34:18;14.04;79.82
74940;HTU21D;63505;45.226;37.908;2023-04-24T11:36:47;14.00;79.83
74940;HTU21D;63505;45.226;37.908;2023-04-24T11:39:14;13.99;79.85
74940;HTU21D;63505;45.226;37.908;2023-04-24T11:41:40;13.97;79.88
74940;HTU21D;63505;45.226;37.908;2023-04-24T11:44:08;13.95;79.87
74940;HTU21D;63505;45.226;37.908;2023-04-24T11:46:34;13.92;79.89
74940;HTU21D;63505;45.226;37.908;2023-04-24T11:49:00;13.90;80.10
74940;HTU21D;63505;45.226;37.908;2023-04-24T11:51:27;13.86;80.30
74940;HTU21D;63505;45.226;37.908;2023-04-24T11:53:54;13.85;80.28
74940;HTU21D;63505;45.226;37.908;2023-04-24T11:56:25;13.81;80.32
74940;HTU21D;63505;45.226;37.908;2023-04-24T11:58:54;13.76;80.40
74940;HTU21D;63505;45.226;37.908;2023-04-24T12:01:22;13.68;80.55
74940;HTU21D;63505;45.226;37.908;2023-04-24T12:03:49;13.67;80.63
74940;HTU21D;63505;45.226;37.908;2023-04-24T12:06:16;13.62;80.80
74940;HTU21D;63505;45.226;37.908;2023-04-24T12:08:46;13.61;80.79
74940;HTU21D;63505;45.226;37.908;2023-04-24T12:11:15;13.58;80.83
74940;HTU21D;63505;45.226;37.908;2023-04-24T12:13:41;13.59;80.77
74940;HTU21D;63505;45.226;37.908;2023-04-24T12:16:07;13.55;80.82
74940;HTU21D;63505;45.226;37.908;2023-04-24T12:18:33;13.58;80.81
74940;HTU21D;63505;45.226;37.908;2023-04-24T12:21:21;13.54;80.81
74940;HTU21D;63505;45.226;37.908;2023-04-24T12:23:48;13.56;80.81
74940;HTU21D;63505;45.226;37.908;2023-04-24T12:26:18;13.55;80.75
74940;HTU21D;63505;45.226;37.908;2023-04-24T12:28:47;13.53;80.80
74940;HTU21D;63505;45.226;37.908;2023-04-24T12:31:15;13.54;80.80
74940;HTU21D;63505;45.226;37.908;2023-04-24T12:33:41;13.59;80.81
74940;HTU21D;63505;45.226;37.908;2023-04-24T12:36:11;13.56;80.81
74940;HTU21D;63505;45.226;37.908;2023-04-24T12:38:38;13.55;80.85
74940;HTU21D;63505;45.226;37.908;2023-04-24T12:41:11;13.54;80.90
74940;HTU21D;63505;45.226;37.908;2023-04-24T12:43:37;13.52;80.94
74940;HTU21D;63505;45.226;37.908;2023-04-24T12:46:04;13.51;81.00
74940;HTU21D;63505;45.226;37.908;2023-04-24T12:48:30;13.53;81.04
74940;HTU21D;63505;45.226;37.908;2023-04-24T12:50:57;13.52;81.05
74940;HTU21D;63505;45.226;37.908;2023-04-24T12:53:27;13.49;81.06
74940;HTU21D;63505;45.226;37.908;2023-04-24T12:55:55;13.46;81.12
74940;HTU21D;63505;45.226;37.908;2023-04-24T12:58:21;13.45;81.17
74940;HTU21D;63505;45.226;37.908;2023-04-24T13:00:47;13.44;81.21
74940;HTU21D;63505;45.226;37.908;2023-04-24T13:03:14;13.41;81.26
74940;HTU21D;63505;45.226;37.908;2023-04-24T13:05:41;13.37;81.36
74940;HTU21D;63505;45.226;37.908;2023-04-24T13:08:07;13.38;81.43
74940;HTU21D;63505;45.226;37.908;2023-04-24T13:10:34;13.39;81.43
74940;HTU21D;63505;45.226;37.908;2023-04-24T13:13:00;13.39;81.42
74940;HTU21D;63505;45.226;37.908;2023-04-24T13:15:26;13.40;81.44
74940;HTU21D;63505;45.226;37.908;2023-04-24T13:17:52;13.39;81.49
74940;HTU21D;63505;45.226;37.908;2023-04-24T13:20:18;13.38;81.53
74940;HTU21D;63505;45.226;37.908;2023-04-24T13:22:44;13.38;81.55
74940;HTU21D;63505;45.226;37.908;2023-04-24T13:25:10;13.39;81.61
74940;HTU21D;63505;45.226;37.908;2023-04-24T13:27:38;13.41;81.65
74940;HTU21D;63505;45.226;37.908;2023-04-24T13:30:04;13.38;81.72
74940;HTU21D;63505;45.226;37.908;2023-04-24T13:32:31;13.40;81.78
74940;HTU21D;63505;45.226;37.908;2023-04-24T13:34:57;13.43;81.80
74940;HTU21D;63505;45.226;37.908;2023-04-24T13:37:23;13.41;81.85
74940;HTU21D;63505;45.226;37.908;2023-04-24T13:39:49;13.38;81.86
74940;HTU21D;63505;45.226;37.908;2023-04-24T13:42:15;13.34;81.95
74940;HTU21D;63505;45.226;37.908;2023-04-24T13:44:41;13.32;82.01
74940;HTU21D;63505;45.226;37.908;2023-04-24T13:47:07;13.29;82.07
74940;HTU21D;63505;45.226;37.908;2023-04-24T13:49:32;13.26;82.14
74940;HTU21D;63505;45.226;37.908;2023-04-24T13:51:58;13.29;82.15
74940;HTU21D;63505;45.226;37.908;2023-04-24T13:54:24;13.25;82.22
74940;HTU21D;63505;45.226;37.908;2023-04-24T13:56:51;13.23;82.26
74940;HTU21D;63505;45.226;37.908;2023-04-24T13:59:21;13.24;82.29
74940;HTU21D;63505;45.226;37.908;2023-04-24T14:01:47;13.21;82.33
74940;HTU21D;63505;45.226;37.908;2023-04-24T14:04:13;13.21;82.38
74940;HTU21D;63505;45.226;37.908;2023-04-24T14:06:39;13.24;82.39
74940;HTU21D;63505;45.226;37.908;2023-04-24T14:09:05;13.27;82.38
74940;HTU21D;63505;45.226;37.908;2023-04-24T14:11:31;13.27;82.39
74940;HTU21D;63505;45.226;37.908;2023-04-24T14:13:57;13.23;82.40
74940;HTU21D;63505;45.226;37.908;2023-04-24T14:16:23;13.20;82.49
74940;HTU21D;63505;45.226;37.908;2023-04-24T14:18:49;13.17;82.68
74940;HTU21D;63505;45.226;37.908;2023-04-24T14:21:15;13.11;83.04
74940;HTU21D;63505;45.226;37.908;2023-04-24T14:23:41;13.07;83.37
74940;HTU21D;63505;45.226;37.908;2023-04-24T14:26:07;13.05;83.52
74940;HTU21D;63505;45.226;37.908;2023-04-24T14:28:33;13.03;83.57
74940;HTU21D;63505;45.226;37.908;2023-04-24T14:30:59;13.03;83.62
74940;HTU21D;63505;45.226;37.908;2023-04-24T14:33:25;13.05;83.64
74940;HTU21D;63505;45.226;37.908;2023-04-24T14:35:51;13.04;83.61
74940;HTU21D;63505;45.226;37.908;2023-04-24T14:38:17;13.05;83.58
74940;HTU21D;63505;45.226;37.908;2023-04-24T14:40:43;13.06;83.55
74940;HTU21D;63505;45.226;37.908;2023-04-24T14:43:09;13.07;83.53
74940;HTU21D;63505;45.226;37.908;2023-04-24T14:45:36;13.07;83.48
74940;HTU21D;63505;45.226;37.908;2023-04-24T14:48:03;13.07;83.45
74940;HTU21D;63505;45.226;37.908;2023-04-24T14:50:29;13.07;83.41
74940;HTU21D;63505;45.226;37.908;2023-04-24T14:52:55;13.09;83.41
74940;HTU21D;63505;45.226;37.908;2023-04-24T14:55:25;13.11;83.41
74940;HTU21D;63505;45.226;37.908;2023-04-24T14:57:51;13.11;83.37
74940;HTU21D;63505;45.226;37.908;2023-04-24T15:00:18;13.10;83.39
74940;HTU21D;63505;45.226;37.908;2023-04-24T15:02:45;13.09;83.42
74940;HTU21D;63505;45.226;37.908;2023-04-24T15:05:11;13.09;83.52
74940;HTU21D;63505;45.226;37.908;2023-04-24T15:07:38;13.10;83.53
74940;HTU21D;63505;45.226;37.908;2023-04-24T15:10:05;13.12;83.52
74940;HTU21D;63505;45.226;37.908;2023-04-24T15:12:31;13.14;83.52
74940;HTU21D;63505;45.226;37.908;2023-04-24T15:14:58;13.14;83.53